createdAt,value
2024-05-09T00:00:29.594Z,4.13
2024-05-09T00:04:36.974Z,5.60
2024-05-09T00:08:22.911Z,5.35
2024-05-09T00:12:11.071Z,5.50
2024-05-09T00:15:56.674Z,5.07
2024-05-09T00:19:42.509Z,4.75
2024-05-09T00:23:29.349Z,4.80
2024-05-09T00:27:17.938Z,4.18
2024-05-09T00:31:03.758Z,4.15
2024-05-09T00:34:49.875Z,6.18
2024-05-09T00:38:35.619Z,4.53
2024-05-09T00:42:24.035Z,5.10
2024-05-09T00:46:10.172Z,6.05
2024-05-09T00:49:56.578Z,3.88
2024-05-09T00:53:42.174Z,4.80
2024-05-09T00:57:30.735Z,7.07
2024-05-09T01:01:16.726Z,3.80
2024-05-09T01:05:02.893Z,3.92
2024-05-09T01:08:48.117Z,4.10
2024-05-09T01:12:36.401Z,5.38
2024-05-09T01:16:21.986Z,5.65
2024-05-09T01:20:10.754Z,4.22
2024-05-09T01:24:04.795Z,5.82
2024-05-09T01:27:50.263Z,5.75
2024-05-09T01:31:36.393Z,4.20
2024-05-09T01:35:23.793Z,5.30
2024-05-09T01:39:12.275Z,5.25
2024-05-09T01:43:03.741Z,5.47
2024-05-09T01:46:49.416Z,4.88
2024-05-09T01:50:39.626Z,4.88
2024-05-09T01:54:30.208Z,5.65
2024-05-09T01:58:16.149Z,3.75
2024-05-09T02:02:01.908Z,4.85
2024-05-09T02:05:48.597Z,6.57
2024-05-09T02:09:36.557Z,5.57
2024-05-09T02:13:22.321Z,4.43
2024-05-09T02:17:08.296Z,4.65
2024-05-09T02:20:53.653Z,5.03
2024-05-09T02:24:42.122Z,7.68
2024-05-09T02:28:27.704Z,4.55
2024-05-09T02:32:13.405Z,7.00
2024-05-09T02:35:59.112Z,3.50
2024-05-09T02:39:44.703Z,5.68
2024-05-09T02:43:30.382Z,8.20
2024-05-09T02:47:16.185Z,5.43
2024-05-09T02:51:01.606Z,6.30
2024-05-09T02:54:49.807Z,4.50
2024-05-09T02:58:35.247Z,4.25
2024-05-09T03:02:20.870Z,5.78
2024-05-09T03:06:06.190Z,4.75
2024-05-09T03:09:54.359Z,4.15
2024-05-09T03:13:44.469Z,4.18
2024-05-09T03:17:30.228Z,3.78
2024-05-09T03:21:13.442Z,5.95
2024-05-09T03:25:01.940Z,3.65
2024-05-09T03:28:48.237Z,5.10
2024-05-09T03:32:33.449Z,4.53
2024-05-09T03:36:16.481Z,5.60
2024-05-09T03:40:09.192Z,4.97
2024-05-09T03:43:57.408Z,4.82
2024-05-09T03:47:43.166Z,4.00
2024-05-09T03:51:28.983Z,3.70
2024-05-09T03:55:17.424Z,3.92
2024-05-09T03:59:00.658Z,4.35
2024-05-09T04:02:46.716Z,5.97
2024-05-09T04:06:32.341Z,4.25
2024-05-09T04:10:27.794Z,3.40
2024-05-09T04:14:18.532Z,5.75
2024-05-09T04:18:04.347Z,4.72
2024-05-09T04:21:50.324Z,4.35
2024-05-09T04:25:38.524Z,3.63
2024-05-09T04:29:23.800Z,4.70
2024-05-09T04:33:11.940Z,5.63
2024-05-09T04:36:59.605Z,4.82
2024-05-09T04:40:48.027Z,3.05
2024-05-09T04:44:33.926Z,3.78
2024-05-09T04:48:19.495Z,5.90
2024-05-09T04:52:05.260Z,4.15
2024-05-09T04:55:51.512Z,3.75
2024-05-09T04:59:37.270Z,4.72
2024-05-09T05:03:23.078Z,4.93
2024-05-09T05:07:05.770Z,4.40
2024-05-09T05:10:54.131Z,6.05
2024-05-09T05:14:37.297Z,5.03
2024-05-09T05:18:22.713Z,4.03
2024-05-09T05:22:08.485Z,5.68
2024-05-09T05:25:54.854Z,6.40
2024-05-09T05:29:40.747Z,5.72
2024-05-09T05:33:26.662Z,3.47
2024-05-09T05:37:09.886Z,2.90
2024-05-09T05:40:58.044Z,5.05
2024-05-09T05:44:43.622Z,4.32
2024-05-09T05:48:28.893Z,5.15
2024-05-09T05:52:14.826Z,5.00
2024-05-09T05:56:00.432Z,4.18
2024-05-09T05:59:46.183Z,8.35
2024-05-09T06:03:31.929Z,3.13
2024-05-09T06:07:15.058Z,4.63
2024-05-09T06:11:03.212Z,5.55
2024-05-09T06:14:48.743Z,5.18
2024-05-09T06:18:34.616Z,4.25
2024-05-09T06:22:17.881Z,3.67
2024-05-09T06:26:07.948Z,5.45
2024-05-09T06:29:53.603Z,4.38
2024-05-09T06:33:39.383Z,4.28
2024-05-09T06:37:25.340Z,5.28
2024-05-09T06:41:13.792Z,4.18
2024-05-09T06:44:59.398Z,9.13
2024-05-09T06:48:43.396Z,3.28
2024-05-09T06:52:29.114Z,4.10
2024-05-09T06:56:17.878Z,5.28
2024-05-09T07:00:03.756Z,3.55
2024-05-09T07:03:49.614Z,3.97
2024-05-09T07:07:35.334Z,2.88
2024-05-09T07:11:23.716Z,3.95
2024-05-09T07:15:09.528Z,3.45
2024-05-09T07:18:57.221Z,4.05
2024-05-09T07:22:43.075Z,4.78
2024-05-09T07:26:31.381Z,3.65
2024-05-09T07:30:26.954Z,2.97
2024-05-09T07:34:16.835Z,3.17
2024-05-09T07:38:00.057Z,3.33
2024-05-09T07:41:48.326Z,2.83
2024-05-09T07:53:37.102Z,2.20
2024-05-09T07:57:19.346Z,2.60
2024-05-09T08:01:05.858Z,2.88
2024-05-09T08:04:51.729Z,4.40
2024-05-09T08:08:37.725Z,3.15
2024-05-09T08:12:25.943Z,4.22
2024-05-09T08:16:12.566Z,3.58
2024-05-09T08:19:58.386Z,4.32
2024-05-09T08:23:44.364Z,4.28
2024-05-09T08:27:32.573Z,4.47
2024-05-09T08:31:18.361Z,2.65
2024-05-09T08:35:04.280Z,4.10
2024-05-09T08:38:49.952Z,3.53
2024-05-09T08:42:39.799Z,2.75
2024-05-09T08:46:25.876Z,2.28
2024-05-09T08:50:24.310Z,6.95
2024-05-09T08:54:18.212Z,4.32
2024-05-09T08:58:08.586Z,3.85
2024-05-09T09:01:52.463Z,3.38
2024-05-09T09:05:41.855Z,6.55
2024-05-09T09:13:16.160Z,3.85
2024-05-09T09:17:01.472Z,6.93
2024-05-09T09:20:47.574Z,2.65
2024-05-09T09:24:33.264Z,5.70
2024-05-09T09:28:25.536Z,7.97
2024-05-09T09:32:09.114Z,6.10
2024-05-09T09:35:54.933Z,4.00
2024-05-09T09:39:49.005Z,4.93
2024-05-09T09:43:39.006Z,5.32
2024-05-09T09:47:26.237Z,2.75
2024-05-09T09:51:12.381Z,6.13
2024-05-09T09:54:59.466Z,3.78
2024-05-09T09:58:48.423Z,5.03
2024-05-09T10:02:34.352Z,4.53
2024-05-09T10:06:21.276Z,6.30
2024-05-09T10:10:11.000Z,3.35
2024-05-09T10:14:03.926Z,3.75
2024-05-09T10:17:51.199Z,4.75
2024-05-09T10:21:37.049Z,4.60
2024-05-09T10:25:23.960Z,4.68
2024-05-09T10:29:19.882Z,4.63
2024-05-09T10:36:49.005Z,5.97
2024-05-09T10:40:34.836Z,4.95
2024-05-09T10:44:24.517Z,3.72
2024-05-09T10:48:11.806Z,3.03
2024-05-09T10:51:57.483Z,3.97
2024-05-09T10:55:43.202Z,4.72
2024-05-09T10:59:36.071Z,4.07
2024-05-09T11:03:19.258Z,4.72
2024-05-09T11:07:07.541Z,4.60
2024-05-09T11:10:54.816Z,3.80
2024-05-09T11:14:40.437Z,4.47
2024-05-09T11:18:29.767Z,5.93
2024-05-09T11:22:17.845Z,6.35
2024-05-09T11:26:04.353Z,3.45
2024-05-09T11:29:52.565Z,3.47
2024-05-09T11:33:37.575Z,3.35
2024-05-09T11:37:23.371Z,4.85
2024-05-09T11:41:09.489Z,3.75
2024-05-09T11:44:57.693Z,4.80
2024-05-09T11:48:43.844Z,5.53
2024-05-09T11:52:29.581Z,6.05
2024-05-09T11:56:15.663Z,8.07
2024-05-09T12:00:01.123Z,2.47
2024-05-09T12:03:48.779Z,5.57
2024-05-09T12:07:31.952Z,5.80
2024-05-09T12:11:17.830Z,5.97
2024-05-09T12:15:06.222Z,4.63
2024-05-09T12:18:52.086Z,6.18
2024-05-09T12:22:38.809Z,4.90
2024-05-09T12:26:24.608Z,3.67
2024-05-09T12:30:20.780Z,3.78
2024-05-09T12:34:14.341Z,3.30
2024-05-09T12:38:00.197Z,5.25
2024-05-09T12:41:43.627Z,3.60
2024-05-09T12:45:32.157Z,4.20
2024-05-09T12:49:20.123Z,4.47
2024-05-09T13:06:09.082Z,3.58
2024-05-09T13:09:54.931Z,2.35
2024-05-09T13:13:40.627Z,4.80
2024-05-09T13:17:26.289Z,4.57
2024-05-09T13:21:12.116Z,3.28
2024-05-09T13:24:57.906Z,2.90
2024-05-09T13:28:43.623Z,3.13
2024-05-09T13:32:26.690Z,4.28
2024-05-09T13:36:14.973Z,2.92
2024-05-09T13:39:58.011Z,2.50
2024-05-09T13:43:43.691Z,3.33
2024-05-09T13:47:26.714Z,2.25
2024-05-09T13:51:14.619Z,5.75
2024-05-09T13:54:58.714Z,2.88
2024-05-09T13:58:44.638Z,5.63
2024-05-09T14:02:32.186Z,3.67
2024-05-09T14:06:20.466Z,2.63
2024-05-09T14:10:05.225Z,2.85
2024-05-09T14:13:52.089Z,3.90
2024-05-09T14:17:35.399Z,4.85
2024-05-09T14:21:23.722Z,5.20
2024-05-09T14:25:09.867Z,4.47
2024-05-09T14:28:55.672Z,3.90
2024-05-09T14:32:41.334Z,5.32
2024-05-09T14:36:29.710Z,2.70
2024-05-09T14:40:30.420Z,5.15
2024-05-09T14:44:21.372Z,3.80
2024-05-09T14:48:07.854Z,4.18
2024-05-09T14:51:56.375Z,5.80
2024-05-09T14:55:41.354Z,4.53
2024-05-09T14:59:28.170Z,4.10
2024-05-09T15:03:13.927Z,6.07
2024-05-09T15:07:00.454Z,7.07
2024-05-09T15:10:46.741Z,3.10
2024-05-09T15:14:29.970Z,4.10
2024-05-09T15:18:15.864Z,3.67
2024-05-09T15:22:04.615Z,4.20
2024-05-09T15:25:50.294Z,3.72
2024-05-09T15:29:36.055Z,3.40
2024-05-09T15:33:18.782Z,3.63
2024-05-09T15:37:08.740Z,3.05
2024-05-09T15:40:54.351Z,3.38
2024-05-09T15:44:37.458Z,2.35
2024-05-09T15:48:23.185Z,4.10
2024-05-09T15:52:11.896Z,4.22
2024-05-09T15:55:57.666Z,4.95
2024-05-09T15:59:43.710Z,3.60
2024-05-09T16:03:29.312Z,2.67
2024-05-09T16:07:17.719Z,6.57
2024-05-09T16:11:03.029Z,2.95
2024-05-09T16:14:51.054Z,4.03
2024-05-09T16:18:36.907Z,6.05
2024-05-09T16:22:25.284Z,3.45
2024-05-09T16:26:11.125Z,6.18
2024-05-09T16:29:55.996Z,5.57
2024-05-09T16:33:41.988Z,5.40
2024-05-09T16:37:30.439Z,3.78
2024-05-09T16:41:15.111Z,3.80
2024-05-09T16:45:02.008Z,3.53
2024-05-09T16:48:48.315Z,6.53
2024-05-09T16:52:36.729Z,3.45
2024-05-09T16:56:23.925Z,3.60
2024-05-09T17:00:18.079Z,3.38
2024-05-09T17:04:11.456Z,2.85
2024-05-09T17:08:00.172Z,3.03
2024-05-09T17:11:45.861Z,2.97
2024-05-09T17:15:31.797Z,3.13
2024-05-09T17:19:17.367Z,5.93
2024-05-09T17:23:12.865Z,4.20
2024-05-09T17:30:44.968Z,8.80
2024-05-09T17:34:31.067Z,6.75
2024-05-09T17:38:19.575Z,7.95
2024-05-09T17:42:05.613Z,4.78
2024-05-09T17:45:51.291Z,6.50
2024-05-09T17:49:34.444Z,7.32
2024-05-09T17:53:22.903Z,7.35
2024-05-09T17:57:09.425Z,6.03
2024-05-09T18:00:55.103Z,6.18
2024-05-09T18:04:41.254Z,6.80
2024-05-09T18:08:27.006Z,6.93
2024-05-09T18:12:12.776Z,10.95
2024-05-09T18:15:58.450Z,4.00
2024-05-09T18:19:41.508Z,8.18
2024-05-09T18:23:30.930Z,4.68
2024-05-09T18:27:16.749Z,6.68
2024-05-09T18:30:59.686Z,6.88
2024-05-09T18:34:44.828Z,7.90
2024-05-09T18:38:32.996Z,9.68
2024-05-09T18:42:18.505Z,5.32
2024-05-09T18:46:01.570Z,4.80
2024-05-09T18:49:47.246Z,6.18
2024-05-09T18:53:35.444Z,5.60
2024-05-09T18:57:21.178Z,5.10
2024-05-09T19:01:07.359Z,4.43
2024-05-09T19:04:53.297Z,4.10
2024-05-09T19:08:41.219Z,4.88
2024-05-09T19:12:24.152Z,6.45
2024-05-09T19:16:10.221Z,5.72
2024-05-09T19:19:53.301Z,6.47
2024-05-09T19:23:47.125Z,7.20
2024-05-09T19:27:37.713Z,3.58
2024-05-09T19:31:24.164Z,8.07
2024-05-09T19:35:10.141Z,5.78
2024-05-09T19:38:58.371Z,7.22
2024-05-09T19:42:44.235Z,7.32
2024-05-09T19:46:30.357Z,8.32
2024-05-09T19:50:19.561Z,6.15
2024-05-09T19:54:13.672Z,6.53
2024-05-09T19:58:01.024Z,6.05
2024-05-09T20:01:48.548Z,6.00
2024-05-09T20:05:34.445Z,5.63
2024-05-09T20:09:25.586Z,5.90
2024-05-09T20:13:11.468Z,5.35
2024-05-09T20:16:57.449Z,4.00
2024-05-09T20:20:44.958Z,8.30
2024-05-09T20:24:36.520Z,9.32
2024-05-09T20:28:22.353Z,18.73
2024-05-09T20:32:08.700Z,6.20
2024-05-09T20:35:55.753Z,6.18
2024-05-09T20:39:44.243Z,7.78
2024-05-09T20:43:29.826Z,6.50
2024-05-09T20:47:12.887Z,10.38
2024-05-09T20:50:58.075Z,7.10
2024-05-09T20:54:46.376Z,6.00
2024-05-09T20:58:32.085Z,5.10
2024-05-09T21:02:18.075Z,5.57
2024-05-09T21:06:03.468Z,6.20
2024-05-09T21:09:51.726Z,4.88
2024-05-09T21:13:37.279Z,4.70
2024-05-09T21:17:23.022Z,7.38
2024-05-09T21:21:06.499Z,6.05
2024-05-09T21:24:54.753Z,10.15
2024-05-09T21:28:37.314Z,7.45
2024-05-09T21:32:33.825Z,9.32
2024-05-09T21:36:20.278Z,11.02
2024-05-09T21:40:13.790Z,8.68
2024-05-09T21:44:02.710Z,8.38
2024-05-09T21:47:45.724Z,12.40
2024-05-09T21:51:32.144Z,10.38
2024-05-09T21:55:20.412Z,10.70
2024-05-09T21:59:05.519Z,9.02
2024-05-09T22:02:48.649Z,10.32
2024-05-09T22:06:34.164Z,12.10
2024-05-09T22:10:26.886Z,9.48
2024-05-09T22:14:18.748Z,10.60
2024-05-09T22:18:01.859Z,8.38
2024-05-09T22:21:47.275Z,12.20
2024-05-09T22:25:35.585Z,12.05
2024-05-09T22:29:21.050Z,8.38
2024-05-09T22:33:07.787Z,13.68
2024-05-09T22:36:53.367Z,10.07
2024-05-09T22:40:47.482Z,10.05
2024-05-09T22:44:35.227Z,13.00
2024-05-09T22:48:21.083Z,17.92
2024-05-09T22:52:07.181Z,16.60
2024-05-09T22:55:54.959Z,13.40
2024-05-09T22:59:40.694Z,16.95
2024-05-09T23:03:23.760Z,19.55
2024-05-09T23:07:11.461Z,14.43
2024-05-09T23:10:59.815Z,14.98
2024-05-09T23:14:45.579Z,14.82
2024-05-09T23:18:31.314Z,12.93
2024-05-09T23:22:17.161Z,13.45
2024-05-09T23:26:05.677Z,12.90
2024-05-09T23:29:48.663Z,12.35
2024-05-09T23:33:34.314Z,14.18
2024-05-09T23:37:19.970Z,17.80
2024-05-09T23:41:09.226Z,15.00
2024-05-09T23:44:55.032Z,14.32
2024-05-09T23:48:40.818Z,13.30
2024-05-09T23:52:26.729Z,12.23
2024-05-09T23:56:14.427Z,11.15
